Time;durP1;ratioP1;P1;durP2;ratioP2;P2;SDS_P1;SDS_P2;PMS_P1;PMS_P2;Temp;Humidity;BMP_temperature;BMP_pressure;BME280_temperature;BME280_humidity;BME280_pressure;Samples;Min_cycle;Max_cycle;Signal;HPM_P1;HPM_P2
2022/07/09 00:02:06;;;;;;;3.97;2.40;;;;;;;20.05;60.77;100414.13;1631336;84;21146;-68
2022/07/09 00:04:33;;;;;;;4.37;2.87;;;;;;;20.01;60.89;100408.55;1654041;84;20967;-68
2022/07/09 00:07:00;;;;;;;4.33;2.63;;;;;;;19.99;61.02;100411.34;1652906;84;22234;-68
2022/07/09 00:09:27;;;;;;;4.10;2.70;;;;;;;19.96;61.08;100406.56;1654116;84;21068;-68
2022/07/09 00:11:54;;;;;;;3.60;2.50;;;;;;;19.93;61.29;100403.94;1653633;84;21018;-67
2022/07/09 00:14:21;;;;;;;5.27;2.90;;;;;;;19.93;61.41;100399.87;1651454;84;21335;-68
2022/07/09 00:16:48;;;;;;;5.50;2.77;;;;;;;19.93;61.54;100401.22;1654850;84;21078;-69
2022/07/09 00:19:14;;;;;;;6.60;2.90;;;;;;;19.91;61.58;100409.69;1656090;84;21034;-68
2022/07/09 00:21:41;;;;;;;4.47;2.90;;;;;;;19.91;61.67;100403.48;1654045;84;21176;-68
2022/07/09 00:24:07;;;;;;;4.20;2.87;;;;;;;19.89;61.61;100397.01;1657756;84;20964;-68
2022/07/09 00:26:34;;;;;;;3.67;2.70;;;;;;;19.88;61.69;100399.49;1662356;84;22046;-69
2022/07/09 00:29:01;;;;;;;6.37;2.77;;;;;;;19.87;61.73;100395.20;1663369;84;21466;-69
2022/07/09 00:31:28;;;;;;;5.83;3.23;;;;;;;19.86;61.88;100400.36;1659241;84;21603;-69
2022/07/09 00:33:54;;;;;;;5.13;2.97;;;;;;;19.85;61.97;100392.01;1682484;85;21147;-67
2022/07/09 00:36:21;;;;;;;4.20;2.77;;;;;;;19.86;61.98;100385.45;1668709;84;20997;-68
2022/07/09 00:38:48;;;;;;;4.97;2.50;;;;;;;19.85;61.99;100383.09;1658059;84;21128;-68
2022/07/09 00:41:15;;;;;;;4.97;2.87;;;;;;;19.82;62.07;100385.09;1653395;84;21082;-68
2022/07/09 00:43:49;;;;;;;5.10;2.93;;;;;;;19.82;61.96;100385.09;1651345;84;21042;-68
2022/07/09 00:46:16;;;;;;;4.30;2.60;;;;;;;19.81;61.95;100389.71;1654905;84;21094;-68
2022/07/09 00:48:43;;;;;;;3.73;2.47;;;;;;;19.81;61.95;100387.53;1653833;84;21041;-68
2022/07/09 00:51:14;;;;;;;3.27;2.40;;;;;;;19.80;62.06;100386.75;1653549;84;21846;-68
2022/07/09 00:53:41;;;;;;;5.03;2.60;;;;;;;19.81;62.08;100387.00;1626829;86;21000;-67
2022/07/09 00:56:08;;;;;;;5.07;2.67;;;;;;;19.82;62.12;100389.15;1653980;84;21066;-69
2022/07/09 00:58:35;;;;;;;6.03;3.10;;;;;;;19.84;62.16;100385.00;1653959;84;21014;-68
2022/07/09 01:01:02;;;;;;;3.53;2.60;;;;;;;19.85;62.16;100382.52;1653541;84;21089;-69
2022/07/09 01:03:30;;;;;;;4.40;2.93;;;;;;;19.88;62.06;100387.30;1653894;84;21154;-69
2022/07/09 01:05:58;;;;;;;4.60;2.93;;;;;;;19.89;62.04;100391.59;1653733;84;21100;-70
2022/07/09 01:08:25;;;;;;;5.00;2.90;;;;;;;19.93;62.08;100402.58;1653650;84;21633;-69
2022/07/09 01:10:51;;;;;;;3.90;2.77;;;;;;;19.95;62.06;100396.28;1654395;84;21010;-68
2022/07/09 01:13:18;;;;;;;4.37;2.80;;;;;;;19.98;62.03;100385.36;1654160;84;21110;-68
2022/07/09 01:15:44;;;;;;;3.27;2.73;;;;;;;20.00;61.87;100379.83;1656025;84;21139;-68
2022/07/09 01:18:12;;;;;;;5.10;2.73;;;;;;;20.01;61.75;100380.09;1656304;84;21051;-67
2022/07/09 01:20:40;;;;;;;4.53;2.70;;;;;;;20.03;61.81;100376.47;1682786;85;20978;-68
2022/07/09 01:23:07;;;;;;;4.17;2.63;;;;;;;20.05;61.95;100381.59;1682641;85;21457;-69
2022/07/09 01:25:40;;;;;;;2.90;2.10;;;;;;;20.05;61.99;100381.02;1656857;84;21125;-67
2022/07/09 01:28:09;;;;;;;4.13;2.80;;;;;;;20.05;61.98;100375.59;1654738;84;21628;-68
2022/07/09 01:30:38;;;;;;;6.33;2.73;;;;;;;20.03;62.04;100377.83;1655300;84;21036;-69
2022/07/09 01:33:05;;;;;;;4.87;2.50;;;;;;;20.01;62.03;100379.30;1653490;84;21010;-67
2022/07/09 01:35:32;;;;;;;3.87;2.80;;;;;;;19.99;62.09;100381.52;1655944;84;21135;-67
2022/07/09 01:37:58;;;;;;;4.67;2.60;;;;;;;19.97;62.11;100373.70;1653594;84;21054;-69
2022/07/09 01:40:25;;;;;;;5.07;2.43;;;;;;;19.97;62.15;100372.91;1653771;84;21155;-69
2022/07/09 01:42:53;;;;;;;3.67;2.60;;;;;;;19.98;62.17;100378.59;1655885;84;21050;-69
2022/07/09 01:45:19;;;;;;;4.67;2.87;;;;;;;19.99;62.12;100378.81;1652970;84;21104;-68
2022/07/09 01:47:46;;;;;;;3.47;2.73;;;;;;;20.00;61.95;100388.52;1653564;84;21090;-68
2022/07/09 01:50:13;;;;;;;5.70;2.90;;;;;;;20.01;61.85;100394.20;1650867;84;20960;-68
2022/07/09 01:52:40;;;;;;;3.87;2.37;;;;;;;20.00;61.76;100395.30;1658659;84;21029;-67
2022/07/09 01:55:07;;;;;;;4.20;2.50;;;;;;;20.00;61.75;100404.79;1652990;84;20951;-69
2022/07/09 01:57:34;;;;;;;4.37;2.93;;;;;;;19.99;61.77;100412.70;1654020;84;21007;-69
2022/07/09 02:00:03;;;;;;;5.40;3.27;;;;;;;20.00;61.70;100429.19;1654939;84;21167;-68
2022/07/09 02:02:32;;;;;;;;;;;;;;;20.01;61.75;100442.44;1658098;84;21279;-68
2022/07/09 02:04:58;;;;;;;2.73;2.20;;;;;;;20.07;61.92;100481.82;1653055;84;21117;-69
2022/07/09 02:07:26;;;;;;;3.50;2.70;;;;;;;20.10;62.01;100486.60;1652918;84;21985;-68
2022/07/09 02:09:53;;;;;;;3.90;2.57;;;;;;;20.12;62.05;100501.18;1654351;84;21014;-67
2022/07/09 02:12:19;;;;;;;3.57;2.50;;;;;;;20.11;62.04;100502.30;1655282;84;20994;-68
2022/07/09 02:14:46;;;;;;;3.60;2.70;;;;;;;20.12;61.94;100515.53;1675662;84;21497;-67
2022/07/09 02:17:13;;;;;;;3.87;2.50;;;;;;;20.13;61.74;100514.97;1682572;85;21660;-68
2022/07/09 02:19:40;;;;;;;4.63;2.53;;;;;;;20.12;61.80;100518.24;1672604;85;21044;-68
2022/07/09 02:22:07;;;;;;;4.93;2.57;;;;;;;20.13;61.99;100524.45;1675454;84;21566;-68
2022/07/09 02:24:34;;;;;;;4.63;2.70;;;;;;;20.14;62.19;100522.00;1653303;84;21015;-67
2022/07/09 02:27:00;;;;;;;4.93;2.67;;;;;;;20.21;62.25;100511.45;1655910;84;21004;-68
2022/07/09 02:29:27;;;;;;;4.03;2.50;;;;;;;20.27;62.19;100496.61;1659110;85;21480;-68
2022/07/09 02:31:55;;;;;;;5.60;2.70;;;;;;;20.35;62.14;100489.55;1658736;84;21620;-68
2022/07/09 02:34:21;;;;;;;4.47;2.80;;;;;;;20.43;62.05;100491.42;1659110;86;21573;-67
2022/07/09 02:36:48;;;;;;;5.27;2.70;;;;;;;20.51;61.86;100497.99;1673592;84;21108;-68
2022/07/09 02:39:14;;;;;;;4.87;2.57;;;;;;;20.53;61.67;100501.16;1659074;86;21535;-67
2022/07/09 02:41:41;;;;;;;6.77;2.87;;;;;;;20.54;61.51;100508.20;1666451;84;21145;-68
2022/07/09 02:44:08;;;;;;;5.10;2.73;;;;;;;20.52;61.27;100505.00;1659431;85;21038;-67
2022/07/09 02:46:34;;;;;;;5.23;2.87;;;;;;;20.47;61.16;100505.95;1658918;86;21015;-68
2022/07/09 02:49:01;;;;;;;4.20;2.60;;;;;;;20.47;61.13;100510.59;1658860;86;21088;-68
2022/07/09 02:51:27;;;;;;;6.20;2.57;;;;;;;20.51;61.13;100524.56;1674310;84;21177;-69
2022/07/09 02:53:54;;;;;;;3.50;2.77;;;;;;;20.57;61.19;100521.91;1665103;84;21262;-69
2022/07/09 02:56:21;;;;;;;5.20;2.60;;;;;;;20.66;61.20;100530.00;1658715;84;20979;-68
2022/07/09 02:58:48;;;;;;;4.80;2.70;;;;;;;20.73;61.16;100531.67;1656693;84;21015;-67
2022/07/09 03:01:16;;;;;;;4.10;2.77;;;;;;;20.82;61.01;100539.76;1652078;84;21014;-67
2022/07/09 03:03:42;;;;;;;4.83;2.70;;;;;;;20.81;61.06;100544.39;1659912;84;21097;-68
2022/07/09 03:06:09;;;;;;;4.73;2.93;;;;;;;20.75;61.38;100544.91;1654869;84;21743;-68
2022/07/09 03:08:36;;;;;;;7.13;2.87;;;;;;;20.69;61.68;100544.84;1653414;84;21057;-69
2022/07/09 03:11:03;;;;;;;4.03;2.70;;;;;;;20.67;61.85;100540.32;1655943;84;21070;-69
2022/07/09 03:13:30;;;;;;;4.27;2.83;;;;;;;20.70;61.91;100537.75;1652515;84;21042;-68
2022/07/09 03:15:57;;;;;;;5.93;2.80;;;;;;;20.77;61.95;100545.39;1653682;84;21022;-67
2022/07/09 03:18:24;;;;;;;6.07;2.90;;;;;;;20.82;62.03;100543.27;1651837;84;21884;-68
2022/07/09 03:20:51;;;;;;;7.20;2.90;;;;;;;20.83;62.15;100546.23;1654422;84;21059;-68
2022/07/09 03:23:18;;;;;;;5.10;2.70;;;;;;;20.88;62.26;100555.31;1650447;84;21492;-68
2022/07/09 03:25:45;;;;;;;8.93;3.30;;;;;;;20.89;62.26;100552.83;1653778;84;21501;-68
2022/07/09 03:28:12;;;;;;;6.23;3.00;;;;;;;20.83;62.46;100557.09;1653814;84;21113;-68
2022/07/09 03:30:38;;;;;;;6.37;3.13;;;;;;;20.76;62.64;100550.02;1655424;84;22033;-68
2022/07/09 03:33:05;;;;;;;4.70;3.10;;;;;;;20.75;62.87;100551.69;1653664;84;21059;-68
2022/07/09 03:35:31;;;;;;;5.10;2.97;;;;;;;20.75;63.04;100550.33;1654142;84;21194;-68
2022/07/09 03:37:58;;;;;;;5.73;3.00;;;;;;;20.76;63.22;100550.56;1656861;84;21685;-67
2022/07/09 03:40:26;;;;;;;4.23;2.90;;;;;;;20.77;63.35;100557.60;1653786;84;21082;-68
2022/07/09 03:42:53;;;;;;;4.77;2.80;;;;;;;20.77;63.40;100561.11;1652728;84;21261;-68
2022/07/09 03:45:19;;;;;;;5.03;2.90;;;;;;;20.78;63.49;100561.33;1653915;84;21050;-69
2022/07/09 03:47:48;;;;;;;6.47;3.13;;;;;;;20.81;63.73;100562.04;1654393;84;21086;-68
2022/07/09 03:50:14;;;;;;;5.90;3.00;;;;;;;20.81;64.05;100562.04;1655481;84;21143;-68
2022/07/09 03:52:41;;;;;;;5.00;2.83;;;;;;;20.69;64.42;100551.63;1653524;84;21257;-68
2022/07/09 03:55:08;;;;;;;5.03;3.27;;;;;;;20.52;64.79;100546.49;1624859;84;21226;-68
2022/07/09 03:57:35;;;;;;;5.70;2.93;;;;;;;20.39;65.20;100545.53;1655129;84;21046;-67
2022/07/09 04:00:06;;;;;;;5.83;2.80;;;;;;;20.32;65.63;100545.23;1653704;84;21016;-68
2022/07/09 04:02:36;;;;;;;4.70;2.73;;;;;;;20.21;66.12;100543.20;1651225;84;21030;-68
2022/07/09 04:05:03;;;;;;;4.63;2.70;;;;;;;20.10;66.70;100543.55;1650981;84;20998;-68
2022/07/09 04:07:30;;;;;;;4.40;2.80;;;;;;;20.03;67.21;100541.85;1655874;84;21924;-68
2022/07/09 04:09:57;;;;;;;4.33;3.03;;;;;;;19.97;67.63;100543.69;1654157;84;20974;-68
2022/07/09 04:12:24;;;;;;;4.20;2.60;;;;;;;19.94;67.96;100542.98;1653582;84;21176;-68
2022/07/09 04:14:50;;;;;;;4.77;3.00;;;;;;;19.92;68.09;100535.18;1653088;84;21074;-68
2022/07/09 04:17:16;;;;;;;3.73;2.60;;;;;;;19.90;68.23;100530.06;1653710;84;21142;-69
2022/07/09 04:19:43;;;;;;;4.97;3.07;;;;;;;19.89;68.41;100523.05;1652925;84;21209;-67
2022/07/09 04:22:10;;;;;;;6.33;3.03;;;;;;;19.87;68.64;100518.53;1653449;84;20999;-67
2022/07/09 04:24:37;;;;;;;4.90;3.00;;;;;;;19.75;69.00;100508.09;1653516;84;21066;-69
2022/07/09 04:27:05;;;;;;;5.17;2.70;;;;;;;19.61;69.32;100490.59;1656696;84;21022;-68
2022/07/09 04:29:32;;;;;;;3.77;2.43;;;;;;;19.54;69.39;100480.80;1655059;84;21558;-68
2022/07/09 04:31:59;;;;;;;4.37;2.60;;;;;;;19.49;69.38;100482.32;1654922;84;21124;-68
2022/07/09 04:34:25;;;;;;;3.30;2.20;;;;;;;19.44;69.70;100482.70;1653744;84;21018;-68
2022/07/09 04:36:53;;;;;;;3.50;2.30;;;;;;;19.37;70.08;100478.31;1652264;84;21101;-68
2022/07/09 04:39:20;;;;;;;5.23;2.50;;;;;;;19.29;70.38;100483.75;1653334;84;21049;-69
2022/07/09 04:41:47;;;;;;;3.50;2.37;;;;;;;19.23;70.77;100475.53;1657004;84;21586;-68
2022/07/09 04:44:15;;;;;;;5.23;2.60;;;;;;;19.15;71.24;100468.97;1652938;84;21589;-68
2022/07/09 04:46:43;;;;;;;4.90;2.70;;;;;;;19.05;71.88;100456.56;1652807;84;21050;-69
2022/07/09 04:49:10;;;;;;;4.93;2.60;;;;;;;18.93;72.57;100441.48;1654026;84;21113;-69
2022/07/09 04:51:37;;;;;;;3.60;2.83;;;;;;;18.81;73.34;100429.91;1657074;84;21120;-69
2022/07/09 04:54:03;;;;;;;7.00;3.83;;;;;;;18.71;73.96;100426.91;1657592;84;21254;-69
2022/07/09 04:56:31;;;;;;;5.30;3.17;;;;;;;18.65;74.41;100414.63;1665588;84;21996;-69
2022/07/09 04:58:59;;;;;;;5.70;3.10;;;;;;;18.64;74.94;100408.99;1652147;84;21058;-68
2022/07/09 05:01:26;;;;;;;4.53;3.00;;;;;;;18.63;75.36;100393.09;1655509;84;20995;-69
2022/07/09 05:03:52;;;;;;;5.00;3.00;;;;;;;18.63;75.60;100385.77;1654604;84;21016;-69
2022/07/09 05:06:19;;;;;;;5.00;3.27;;;;;;;18.63;75.70;100367.39;1654054;84;21560;-69
2022/07/09 05:08:47;;;;;;;4.20;2.50;;;;;;;18.61;75.79;100369.04;1653751;84;21808;-69
2022/07/09 05:11:14;;;;;;;4.33;2.90;;;;;;;18.59;75.66;100363.70;1654179;84;21605;-68
2022/07/09 05:13:41;;;;;;;4.33;3.13;;;;;;;18.59;75.83;100363.70;1655314;84;21560;-69
2022/07/09 05:16:07;;;;;;;5.30;3.30;;;;;;;18.58;75.90;100378.34;1656382;84;21054;-69
2022/07/09 05:18:35;;;;;;;4.53;3.20;;;;;;;18.59;76.03;100381.28;1654441;84;21034;-68
2022/07/09 05:21:01;;;;;;;4.17;2.53;;;;;;;18.61;76.10;100388.53;1653630;84;21166;-69
2022/07/09 05:23:28;;;;;;;6.13;3.00;;;;;;;18.63;76.07;100391.17;1656135;84;21045;-69
2022/07/09 05:25:56;;;;;;;4.13;3.00;;;;;;;18.63;76.03;100389.82;1653894;84;21054;-67
2022/07/09 05:28:23;;;;;;;5.73;3.20;;;;;;;18.63;76.08;100386.33;1656838;84;21647;-68
2022/07/09 05:30:50;;;;;;;4.73;3.47;;;;;;;18.64;76.18;100381.14;1653625;84;21177;-69
2022/07/09 05:33:19;;;;;;;6.07;3.63;;;;;;;18.67;76.51;100377.81;1657269;84;21078;-68
2022/07/09 05:35:45;;;;;;;4.23;3.70;;;;;;;18.68;76.70;100365.87;1657523;86;21187;-69
2022/07/09 05:38:12;;;;;;;6.33;3.97;;;;;;;18.71;76.85;100349.80;1657776;84;20986;-69
2022/07/09 05:40:41;;;;;;;6.93;4.00;;;;;;;18.73;77.01;100331.95;1659076;86;21101;-69
2022/07/09 05:43:07;;;;;;;5.97;4.30;;;;;;;18.76;77.08;100329.17;1659103;86;21478;-67
2022/07/09 05:45:34;;;;;;;6.93;4.90;;;;;;;18.75;76.99;100320.23;1659026;85;22147;-69
2022/07/09 05:48:01;;;;;;;8.67;5.33;;;;;;;18.74;77.10;100303.77;1658669;86;21082;-69
2022/07/09 05:50:28;;;;;;;8.70;6.87;;;;;;;18.72;77.28;100312.75;1659042;86;21110;-69
2022/07/09 05:52:55;;;;;;;11.50;8.47;;;;;;;18.69;77.64;100299.82;1644695;86;21017;-68
2022/07/09 05:55:21;;;;;;;11.50;10.27;;;;;;;18.65;77.97;100292.11;1642961;86;20976;-68
2022/07/09 05:57:47;;;;;;;13.73;11.67;;;;;;;18.63;78.33;100285.67;1642863;87;21139;-68
2022/07/09 06:00:15;;;;;;;12.03;10.23;;;;;;;18.63;78.60;100283.53;1657067;86;21073;-67
2022/07/09 06:02:42;;;;;;;13.33;10.07;;;;;;;18.62;78.72;100281.92;1657715;86;21547;-69
2022/07/09 06:05:09;;;;;;;11.37;9.47;;;;;;;18.64;78.89;100287.26;1658478;86;21072;-69
2022/07/09 06:07:35;;;;;;;11.63;8.27;;;;;;;18.68;78.87;100300.94;1658525;85;21039;-67
2022/07/09 06:10:02;;;;;;;8.27;6.17;;;;;;;18.71;78.81;100303.02;1652749;84;22261;-67
2022/07/09 06:12:28;;;;;;;8.33;6.17;;;;;;;18.74;78.70;100306.47;1653817;84;21305;-68
2022/07/09 06:14:55;;;;;;;7.20;4.77;;;;;;;18.78;78.62;100304.72;1653782;84;21040;-67
2022/07/09 06:17:21;;;;;;;5.27;4.53;;;;;;;18.82;78.33;100319.23;1652964;84;21408;-68
2022/07/09 06:19:49;;;;;;;7.30;4.20;;;;;;;18.85;78.00;100326.68;1652018;84;21011;-68
2022/07/09 06:22:15;;;;;;;6.40;3.87;;;;;;;18.88;77.66;100332.81;1653745;84;21248;-68
2022/07/09 06:24:42;;;;;;;6.77;4.43;;;;;;;18.94;77.41;100331.55;1653047;84;21567;-67
2022/07/09 06:27:08;;;;;;;5.43;4.03;;;;;;;18.98;77.37;100334.41;1653113;84;21462;-67
2022/07/09 06:29:35;;;;;;;4.97;3.77;;;;;;;19.02;77.15;100348.92;1654064;84;20977;-67
2022/07/09 06:32:02;;;;;;;6.40;4.30;;;;;;;19.06;76.84;100364.75;1655346;84;21257;-67
2022/07/09 06:34:29;;;;;;;6.20;4.00;;;;;;;19.08;76.58;100372.55;1653464;84;21174;-68
2022/07/09 06:36:55;;;;;;;6.03;4.00;;;;;;;19.13;76.16;100373.75;1654383;84;21105;-68
2022/07/09 06:42:07;;;;;;;4.70;3.23;;;;;;;19.19;76.30;100377.33;1654173;84;21019;-68
2022/07/09 06:44:35;;;;;;;4.53;3.60;;;;;;;19.25;76.22;100373.91;1654691;84;21142;-68
2022/07/09 06:47:04;;;;;;;4.00;3.50;;;;;;;19.27;75.89;100356.77;1654710;84;21375;-68
2022/07/09 06:49:31;;;;;;;5.37;3.60;;;;;;;19.30;75.73;100341.24;1653338;84;21067;-68
2022/07/09 06:51:57;;;;;;;4.50;3.27;;;;;;;19.31;75.41;100341.47;1654444;84;21047;-67
2022/07/09 06:54:24;;;;;;;5.63;3.07;;;;;;;19.31;75.27;100351.51;1655312;84;21010;-68
2022/07/09 06:56:51;;;;;;;5.07;3.40;;;;;;;19.27;74.94;100352.71;1659225;86;21075;-68
2022/07/09 06:59:18;;;;;;;4.70;3.57;;;;;;;19.26;74.81;100361.96;1628864;84;21197;-67
2022/07/09 07:01:45;;;;;;;4.70;3.20;;;;;;;19.28;74.85;100370.57;1653615;84;21071;-67
2022/07/09 07:04:12;;;;;;;4.17;3.47;;;;;;;19.29;74.68;100370.01;1654127;84;20985;-68
2022/07/09 07:06:40;;;;;;;5.67;3.30;;;;;;;19.30;74.71;100366.97;1653793;84;21058;-68
2022/07/09 07:09:08;;;;;;;5.03;3.40;;;;;;;19.35;74.76;100359.25;1650977;84;21053;-67
2022/07/09 07:11:35;;;;;;;5.70;3.47;;;;;;;19.38;74.77;100352.63;1654249;84;21289;-68
2022/07/09 07:14:02;;;;;;;6.37;3.50;;;;;;;19.39;74.71;100355.57;1655110;84;21655;-68
2022/07/09 07:16:28;;;;;;;5.80;3.80;;;;;;;19.40;74.91;100354.45;1653424;84;21033;-68
2022/07/09 07:18:55;;;;;;;4.17;3.10;;;;;;;19.40;74.76;100355.01;1652767;84;21011;-69
2022/07/09 07:21:21;;;;;;;3.90;3.37;;;;;;;19.37;74.88;100346.96;1653276;84;21014;-68
2022/07/09 07:23:48;;;;;;;4.83;3.60;;;;;;;19.30;74.85;100338.53;1650883;84;21778;-68
2022/07/09 07:26:14;;;;;;;5.40;3.60;;;;;;;19.22;75.00;100329.88;1651841;84;20955;-68
2022/07/09 07:28:41;;;;;;;4.47;3.70;;;;;;;19.13;75.31;100322.31;1653697;84;21056;-68
2022/07/09 07:31:08;;;;;;;6.23;3.87;;;;;;;19.08;75.88;100326.52;1654503;84;21030;-70
2022/07/09 07:33:35;;;;;;;4.70;3.70;;;;;;;19.06;76.25;100317.94;1658471;86;21110;-69
2022/07/09 07:36:02;;;;;;;5.03;4.00;;;;;;;19.06;76.65;100313.88;1654750;84;21071;-70
2022/07/09 07:38:29;;;;;;;7.83;3.90;;;;;;;19.04;76.85;100307.42;1653147;84;21068;-69
2022/07/09 07:40:55;;;;;;;6.37;4.50;;;;;;;19.03;77.04;100301.78;1653912;84;21043;-69
2022/07/09 07:43:22;;;;;;;5.00;3.87;;;;;;;19.00;77.13;100302.98;1655349;84;21175;-69
2022/07/09 07:45:48;;;;;;;5.73;4.20;;;;;;;19.00;77.45;100296.21;1652072;84;21111;-69
2022/07/09 07:48:15;;;;;;;7.20;4.37;;;;;;;19.01;77.67;100293.17;1659475;86;21112;-69
2022/07/09 07:50:41;;;;;;;5.80;4.60;;;;;;;19.02;77.89;100296.14;1658593;86;21062;-69
2022/07/09 07:53:08;;;;;;;6.37;4.37;;;;;;;19.04;78.12;100304.71;1655185;84;20999;-69
2022/07/09 07:55:34;;;;;;;5.80;4.53;;;;;;;19.08;78.20;100305.66;1654188;84;21030;-69
2022/07/09 07:58:01;;;;;;;6.50;4.40;;;;;;;19.15;78.31;100305.99;1652703;84;21082;-68
2022/07/09 08:00:27;;;;;;;5.60;4.50;;;;;;;19.33;78.08;100299.98;1654246;84;21203;-67
2022/07/09 08:02:54;;;;;;;7.73;4.00;;;;;;;19.37;77.82;100295.50;1652690;84;21055;-68
2022/07/09 08:05:21;;;;;;;4.73;3.70;;;;;;;19.40;77.58;100294.86;1653778;84;21057;-67
2022/07/09 08:07:49;;;;;;;4.27;3.83;;;;;;;19.44;77.58;100284.97;1642792;84;21051;-69
2022/07/09 08:10:15;;;;;;;4.87;3.67;;;;;;;19.50;77.24;100286.95;1630691;87;21079;-69
2022/07/09 08:12:44;;;;;;;6.03;4.13;;;;;;;19.52;76.51;100285.29;1630748;88;21827;-67
2022/07/09 08:15:12;;;;;;;6.57;3.80;;;;;;;19.57;76.25;100295.93;1603724;88;21541;-68
2022/07/09 08:17:47;;;;;;;8.07;4.00;;;;;;;19.61;75.76;100292.80;1639713;86;21026;-68
2022/07/09 08:20:21;;;;;;;5.87;3.83;;;;;;;19.65;75.62;100302.72;1632211;86;20972;-68
2022/07/09 08:22:52;;;;;;;4.93;3.70;;;;;;;19.72;75.41;100302.22;1658809;86;21064;-68
2022/07/09 08:25:19;;;;;;;5.67;3.77;;;;;;;19.81;75.39;100301.63;1656545;86;21196;-68
2022/07/09 08:27:45;;;;;;;5.33;3.70;;;;;;;19.90;75.18;100312.42;1607792;87;20959;-67
2022/07/09 08:30:12;;;;;;;6.80;3.83;;;;;;;20.01;75.00;100313.66;1638706;87;21103;-68
2022/07/09 08:32:39;;;;;;;4.43;3.53;;;;;;;20.00;74.96;100318.83;1642721;86;21089;-68
2022/07/09 08:35:08;;;;;;;4.77;3.30;;;;;;;20.05;74.63;100326.00;1642856;86;20956;-68
2022/07/09 08:37:37;;;;;;;5.30;3.40;;;;;;;20.06;73.95;100326.23;1652792;86;21128;-67
2022/07/09 08:40:07;;;;;;;6.10;3.50;;;;;;;20.06;73.77;100318.89;1647754;86;21084;-68
2022/07/09 08:42:34;;;;;;;5.87;4.20;;;;;;;20.08;73.52;100319.37;1658942;86;21021;-68
2022/07/09 08:45:01;;;;;;;5.43;3.67;;;;;;;20.06;73.27;100325.66;1659076;86;21547;-68
2022/07/09 08:47:28;;;;;;;4.87;3.40;;;;;;;20.09;73.04;100329.65;1659135;86;21017;-68
2022/07/09 08:49:57;;;;;;;4.20;3.30;;;;;;;20.14;73.28;100324.05;1609354;86;21154;-68
2022/07/09 08:52:25;;;;;;;4.53;3.50;;;;;;;20.28;73.44;100331.38;1659054;85;21100;-68
2022/07/09 08:54:53;;;;;;;4.97;3.67;;;;;;;20.35;73.17;100323.52;1658558;86;21125;-68
2022/07/09 08:57:20;;;;;;;7.23;3.70;;;;;;;20.40;73.03;100322.55;1659109;86;21562;-68
2022/07/09 08:59:47;;;;;;;6.40;3.80;;;;;;;20.47;72.96;100316.61;1685419;85;21614;-68
2022/07/09 09:02:14;;;;;;;5.33;3.87;;;;;;;20.53;72.62;100309.34;1685178;85;21120;-67
2022/07/09 09:04:43;;;;;;;5.27;3.60;;;;;;;20.52;72.27;100300.94;1672123;84;21029;-67
2022/07/09 09:07:18;;;;;;;5.83;4.07;;;;;;;20.51;71.86;100299.93;1620862;86;21090;-67
2022/07/09 09:09:45;;;;;;;4.90;3.73;;;;;;;20.50;71.82;100292.86;1651897;84;21023;-69
2022/07/09 09:12:13;;;;;;;5.43;3.77;;;;;;;20.51;71.97;100285.00;1651741;84;21007;-69
2022/07/09 09:14:50;;;;;;;5.60;3.60;;;;;;;20.48;71.73;100276.14;1659106;86;21621;-68
2022/07/09 09:17:17;;;;;;;4.27;3.50;;;;;;;20.48;71.72;100261.22;1657297;84;21336;-68
2022/07/09 09:19:44;;;;;;;5.97;3.77;;;;;;;20.51;72.03;100263.30;1653779;84;21101;-69
2022/07/09 09:22:16;;;;;;;4.47;3.23;;;;;;;20.56;71.83;100257.09;1653969;84;21102;-68
2022/07/09 09:24:43;;;;;;;4.97;3.57;;;;;;;20.58;71.27;100260.84;1611852;84;21003;-67
2022/07/09 09:27:14;;;;;;;5.63;3.10;;;;;;;20.64;71.57;100265.52;1650933;84;21161;-68
2022/07/09 09:29:51;;;;;;;6.53;3.50;;;;;;;20.75;71.37;100253.91;1653257;84;21066;-68
2022/07/09 09:32:21;;;;;;;8.57;3.63;;;;;;;20.82;70.95;100254.73;1656436;84;21530;-68
2022/07/09 09:34:51;;;;;;;5.10;3.40;;;;;;;20.92;71.00;100246.74;1659058;85;20972;-67
2022/07/09 09:37:29;;;;;;;4.70;3.37;;;;;;;20.98;70.55;100243.48;1655439;84;21123;-68
2022/07/09 09:39:56;;;;;;;6.03;3.80;;;;;;;21.01;70.04;100251.53;1651775;84;21773;-68
2022/07/09 09:42:25;;;;;;;4.63;3.30;;;;;;;20.95;69.51;100249.58;1650773;84;20951;-68
2022/07/09 09:44:54;;;;;;;4.35;3.27;;;;;;;20.93;69.64;100248.35;1655315;84;21576;-68
2022/07/09 09:47:24;;;;;;;5.37;3.30;;;;;;;20.84;69.05;100238.34;1653206;84;21438;-69
2022/07/09 09:49:51;;;;;;;4.40;2.97;;;;;;;20.71;69.12;100240.78;1653361;84;21097;-67
2022/07/09 09:52:20;;;;;;;4.60;3.10;;;;;;;20.59;69.05;100232.58;1654036;84;21701;-68
2022/07/09 09:54:49;;;;;;;4.93;3.30;;;;;;;20.51;69.38;100222.61;1658997;86;21129;-68
2022/07/09 09:57:18;;;;;;;10.53;3.85;;;;;;;20.54;69.81;100217.88;1659354;85;20967;-68
2022/07/09 09:59:45;;;;;;;4.80;3.30;;;;;;;20.53;69.96;100218.44;1657973;84;21027;-68
2022/07/09 10:02:13;;;;;;;4.27;3.13;;;;;;;20.49;69.84;100218.82;1658776;86;21557;-70
2022/07/09 10:04:43;;;;;;;4.43;3.27;;;;;;;20.46;69.83;100225.48;1654790;84;21227;-68
2022/07/09 10:07:13;;;;;;;4.03;3.35;;;;;;;20.43;70.11;100223.42;1653873;84;21082;-68
2022/07/09 10:09:40;;;;;;;5.47;3.83;;;;;;;20.44;70.45;100227.74;1611210;85;21123;-67
2022/07/09 10:12:09;;;;;;;5.40;3.57;;;;;;;20.49;70.66;100235.09;1656394;84;22660;-68
2022/07/09 10:14:38;;;;;;;4.57;3.73;;;;;;;20.54;70.75;100234.94;1657010;84;21462;-68
2022/07/09 10:17:15;;;;;;;5.20;3.57;;;;;;;20.60;70.63;100240.41;1653264;84;21195;-68
2022/07/09 10:20:04;;;;;;;4.53;3.40;;;;;;;20.62;70.31;100249.55;1653446;84;21529;-68
2022/07/09 10:22:38;;;;;;;4.03;3.43;;;;;;;20.64;70.28;100255.45;1657115;84;21003;-69
2022/07/09 10:25:05;;;;;;;5.97;3.50;;;;;;;20.64;70.42;100256.02;1657104;84;21020;-69
2022/07/09 10:27:46;;;;;;;4.83;3.67;;;;;;;20.68;70.56;100267.23;1659159;86;21188;-68
2022/07/09 10:30:31;;;;;;;5.25;3.42;;;;;;;20.74;70.48;100264.55;1656262;84;21135;-67
2022/07/09 10:33:07;;;;;;;5.20;3.80;;;;;;;20.76;70.27;100265.02;1653577;84;21095;-68
2022/07/09 10:35:46;;;;;;;5.77;3.47;;;;;;;20.76;70.28;100267.73;1655002;84;21026;-68
2022/07/09 10:38:14;;;;;;;5.33;3.23;;;;;;;20.78;70.23;100270.11;1652876;84;21022;-68
2022/07/09 10:40:46;;;;;;;3.70;3.27;;;;;;;20.79;70.13;100279.26;1653507;84;21192;-70
2022/07/09 10:43:14;;;;;;;5.73;3.60;;;;;;;20.83;70.20;100284.84;1652551;84;21155;-68
2022/07/09 10:45:44;;;;;;;4.27;3.50;;;;;;;20.89;70.04;100279.41;1650588;84;21113;-68
2022/07/09 10:48:15;;;;;;;5.42;3.83;;;;;;;20.93;69.80;100275.50;1653714;84;21087;-68
2022/07/09 10:50:44;;;;;;;6.70;3.20;;;;;;;20.96;69.93;100276.16;1653708;84;21097;-68
2022/07/09 10:53:11;;;;;;;4.13;3.43;;;;;;;20.95;69.75;100276.73;1653527;84;21067;-68
2022/07/09 10:55:44;;;;;;;5.43;3.20;;;;;;;20.96;69.56;100287.02;1654075;84;21529;-67
2022/07/09 10:58:20;;;;;;;3.97;3.03;;;;;;;20.97;69.63;100284.56;1653356;84;21030;-68
2022/07/09 11:00:59;;;;;;;4.37;3.00;;;;;;;21.02;69.44;100285.13;1658792;86;21474;-68
2022/07/09 11:03:27;;;;;;;4.10;3.20;;;;;;;21.03;69.10;100283.23;1656135;84;21016;-68
2022/07/09 11:05:53;;;;;;;3.57;3.00;;;;;;;21.03;69.07;100278.59;1658046;86;21076;-68
2022/07/09 11:08:22;;;;;;;5.93;3.93;;;;;;;21.04;68.91;100269.30;1656044;86;21172;-68
2022/07/09 11:10:49;;;;;;;4.77;3.47;;;;;;;21.07;68.87;100271.92;1658157;86;21031;-68
2022/07/09 11:13:15;;;;;;;7.43;3.83;;;;;;;21.12;68.83;100268.19;1685418;85;21465;-68
2022/07/09 11:15:42;;;;;;;5.40;3.90;;;;;;;21.22;68.69;100275.91;1679184;85;21519;-67
2022/07/09 11:18:10;;;;;;;4.70;3.90;;;;;;;21.33;68.75;100272.23;1660006;86;21072;-69
2022/07/09 11:20:44;;;;;;;7.10;4.17;;;;;;;21.49;68.62;100277.27;1653707;84;21536;-68
2022/07/09 11:23:16;;;;;;;4.83;3.60;;;;;;;21.64;68.15;100277.17;1665683;84;21020;-68
2022/07/09 11:25:44;;;;;;;4.92;3.40;;;;;;;21.75;67.61;100281.84;1664336;86;20995;-68
2022/07/09 11:28:22;;;;;;;5.03;3.70;;;;;;;21.88;67.33;100283.18;1655791;86;21114;-68
2022/07/09 11:31:02;;;;;;;4.90;3.13;;;;;;;21.98;66.50;100280.83;1641519;87;21081;-69